sensor_id;sensor_type;location;lat;lon;timestamp;P1;durP1;ratioP1;P2;durP2;ratioP2
11187;SDS011;5650;52.700;7.306;2023-05-28T00:02:19;24.20;;;7.25;;
11187;SDS011;5650;52.700;7.306;2023-05-28T00:04:47;14.32;;;6.15;;
11187;SDS011;5650;52.700;7.306;2023-05-28T00:07:17;22.80;;;7.78;;
11187;SDS011;5650;52.700;7.306;2023-05-28T00:09:49;22.98;;;7.13;;
11187;SDS011;5650;52.700;7.306;2023-05-28T00:12:19;18.60;;;6.53;;
11187;SDS011;5650;52.700;7.306;2023-05-28T00:14:54;17.48;;;6.55;;
11187;SDS011;5650;52.700;7.306;2023-05-28T00:17:21;19.83;;;7.55;;
11187;SDS011;5650;52.700;7.306;2023-05-28T00:20:07;19.45;;;6.75;;
11187;SDS011;5650;52.700;7.306;2023-05-28T00:22:42;16.42;;;6.88;;
11187;SDS011;5650;52.700;7.306;2023-05-28T00:25:09;17.55;;;7.63;;
11187;SDS011;5650;52.700;7.306;2023-05-28T00:27:47;15.85;;;6.38;;
11187;SDS011;5650;52.700;7.306;2023-05-28T00:30:15;19.75;;;6.60;;
11187;SDS011;5650;52.700;7.306;2023-05-28T00:32:46;17.88;;;6.57;;
11187;SDS011;5650;52.700;7.306;2023-05-28T00:35:13;19.17;;;6.72;;
11187;SDS011;5650;52.700;7.306;2023-05-28T00:37:46;22.92;;;7.15;;
11187;SDS011;5650;52.700;7.306;2023-05-28T00:40:13;18.90;;;6.45;;
11187;SDS011;5650;52.700;7.306;2023-05-28T00:42:43;21.25;;;7.32;;
11187;SDS011;5650;52.700;7.306;2023-05-28T00:45:16;18.90;;;6.30;;
11187;SDS011;5650;52.700;7.306;2023-05-28T00:47:46;21.38;;;7.32;;
11187;SDS011;5650;52.700;7.306;2023-05-28T00:50:14;20.13;;;7.40;;
11187;SDS011;5650;52.700;7.306;2023-05-28T00:52:42;18.25;;;7.07;;
11187;SDS011;5650;52.700;7.306;2023-05-28T00:55:14;19.10;;;7.18;;
11187;SDS011;5650;52.700;7.306;2023-05-28T00:57:46;19.50;;;6.80;;
11187;SDS011;5650;52.700;7.306;2023-05-28T01:00:18;19.05;;;6.72;;
11187;SDS011;5650;52.700;7.306;2023-05-28T01:02:45;17.00;;;7.13;;
11187;SDS011;5650;52.700;7.306;2023-05-28T01:05:16;20.30;;;7.47;;
11187;SDS011;5650;52.700;7.306;2023-05-28T01:07:54;18.52;;;6.90;;
11187;SDS011;5650;52.700;7.306;2023-05-28T01:10:21;21.90;;;7.30;;
11187;SDS011;5650;52.700;7.306;2023-05-28T01:12:52;19.20;;;7.15;;
11187;SDS011;5650;52.700;7.306;2023-05-28T01:15:22;20.45;;;6.55;;
11187;SDS011;5650;52.700;7.306;2023-05-28T01:17:51;22.77;;;7.18;;
11187;SDS011;5650;52.700;7.306;2023-05-28T01:20:26;18.50;;;7.68;;
11187;SDS011;5650;52.700;7.306;2023-05-28T01:22:55;19.55;;;7.78;;
11187;SDS011;5650;52.700;7.306;2023-05-28T01:25:27;28.90;;;7.72;;
11187;SDS011;5650;52.700;7.306;2023-05-28T01:27:58;22.70;;;7.15;;
11187;SDS011;5650;52.700;7.306;2023-05-28T01:30:33;21.48;;;7.53;;
11187;SDS011;5650;52.700;7.306;2023-05-28T01:33:04;18.67;;;7.30;;
11187;SDS011;5650;52.700;7.306;2023-05-28T01:35:31;19.75;;;7.32;;
11187;SDS011;5650;52.700;7.306;2023-05-28T01:37:59;20.98;;;7.65;;
11187;SDS011;5650;52.700;7.306;2023-05-28T01:40:31;15.15;;;7.20;;
11187;SDS011;5650;52.700;7.306;2023-05-28T01:43:04;27.92;;;8.52;;
11187;SDS011;5650;52.700;7.306;2023-05-28T01:45:32;17.17;;;7.72;;
11187;SDS011;5650;52.700;7.306;2023-05-28T01:48:03;21.02;;;7.75;;
11187;SDS011;5650;52.700;7.306;2023-05-28T01:50:34;22.17;;;7.63;;
11187;SDS011;5650;52.700;7.306;2023-05-28T01:53:02;20.10;;;7.47;;
11187;SDS011;5650;52.700;7.306;2023-05-28T01:55:29;24.27;;;8.55;;
11187;SDS011;5650;52.700;7.306;2023-05-28T01:58:02;21.98;;;7.90;;
11187;SDS011;5650;52.700;7.306;2023-05-28T02:00:30;18.08;;;8.52;;
11187;SDS011;5650;52.700;7.306;2023-05-28T02:03:01;19.77;;;8.30;;
11187;SDS011;5650;52.700;7.306;2023-05-28T02:05:32;22.92;;;8.75;;
11187;SDS011;5650;52.700;7.306;2023-05-28T02:08:05;20.10;;;8.13;;
11187;SDS011;5650;52.700;7.306;2023-05-28T02:10:33;19.90;;;8.25;;
11187;SDS011;5650;52.700;7.306;2023-05-28T02:13:07;22.55;;;9.63;;
11187;SDS011;5650;52.700;7.306;2023-05-28T02:15:34;22.08;;;8.07;;
11187;SDS011;5650;52.700;7.306;2023-05-28T02:18:04;19.38;;;7.75;;
11187;SDS011;5650;52.700;7.306;2023-05-28T02:20:35;23.83;;;8.55;;
11187;SDS011;5650;52.700;7.306;2023-05-28T02:23:02;21.13;;;7.55;;
11187;SDS011;5650;52.700;7.306;2023-05-28T02:25:30;19.15;;;8.10;;
11187;SDS011;5650;52.700;7.306;2023-05-28T02:27:57;22.85;;;9.15;;
11187;SDS011;5650;52.700;7.306;2023-05-28T02:30:29;23.17;;;9.20;;
11187;SDS011;5650;52.700;7.306;2023-05-28T02:32:56;24.30;;;9.18;;
11187;SDS011;5650;52.700;7.306;2023-05-28T02:35:23;25.95;;;9.75;;
11187;SDS011;5650;52.700;7.306;2023-05-28T02:37:56;22.10;;;9.38;;
11187;SDS011;5650;52.700;7.306;2023-05-28T02:40:27;20.63;;;8.15;;
11187;SDS011;5650;52.700;7.306;2023-05-28T02:42:56;25.42;;;9.05;;
11187;SDS011;5650;52.700;7.306;2023-05-28T02:45:23;20.25;;;8.77;;
11187;SDS011;5650;52.700;7.306;2023-05-28T02:47:52;18.33;;;8.65;;
11187;SDS011;5650;52.700;7.306;2023-05-28T02:50:22;19.70;;;8.75;;
11187;SDS011;5650;52.700;7.306;2023-05-28T02:52:49;21.38;;;9.43;;
11187;SDS011;5650;52.700;7.306;2023-05-28T02:55:22;29.13;;;10.15;;
11187;SDS011;5650;52.700;7.306;2023-05-28T02:57:50;19.88;;;8.70;;
11187;SDS011;5650;52.700;7.306;2023-05-28T03:00:20;23.23;;;9.48;;
11187;SDS011;5650;52.700;7.306;2023-05-28T03:02:48;23.48;;;9.98;;
11187;SDS011;5650;52.700;7.306;2023-05-28T03:05:23;23.17;;;9.32;;
11187;SDS011;5650;52.700;7.306;2023-05-28T03:07:52;20.63;;;9.55;;
11187;SDS011;5650;52.700;7.306;2023-05-28T03:10:19;20.42;;;9.73;;
11187;SDS011;5650;52.700;7.306;2023-05-28T03:12:49;21.35;;;9.07;;
11187;SDS011;5650;52.700;7.306;2023-05-28T03:15:17;20.25;;;9.35;;
11187;SDS011;5650;52.700;7.306;2023-05-28T03:17:48;20.15;;;9.68;;
11187;SDS011;5650;52.700;7.306;2023-05-28T03:20:17;17.75;;;9.13;;
11187;SDS011;5650;52.700;7.306;2023-05-28T03:22:45;25.77;;;9.55;;
11187;SDS011;5650;52.700;7.306;2023-05-28T03:25:16;20.33;;;9.07;;
11187;SDS011;5650;52.700;7.306;2023-05-28T03:27:43;23.48;;;10.75;;
11187;SDS011;5650;52.700;7.306;2023-05-28T03:30:13;20.90;;;9.40;;
11187;SDS011;5650;52.700;7.306;2023-05-28T03:32:48;28.25;;;11.43;;
11187;SDS011;5650;52.700;7.306;2023-05-28T03:35:17;22.58;;;10.35;;
11187;SDS011;5650;52.700;7.306;2023-05-28T03:37:44;25.60;;;10.68;;
11187;SDS011;5650;52.700;7.306;2023-05-28T03:40:17;30.95;;;11.30;;
11187;SDS011;5650;52.700;7.306;2023-05-28T03:42:45;27.60;;;10.25;;
11187;SDS011;5650;52.700;7.306;2023-05-28T03:45:13;25.10;;;10.63;;
11187;SDS011;5650;52.700;7.306;2023-05-28T03:47:41;20.90;;;9.98;;
11187;SDS011;5650;52.700;7.306;2023-05-28T03:50:11;24.65;;;10.57;;
11187;SDS011;5650;52.700;7.306;2023-05-28T03:52:43;23.42;;;10.52;;
11187;SDS011;5650;52.700;7.306;2023-05-28T03:55:13;26.77;;;10.60;;
11187;SDS011;5650;52.700;7.306;2023-05-28T03:57:47;25.67;;;11.27;;
11187;SDS011;5650;52.700;7.306;2023-05-28T04:00:20;21.02;;;10.45;;
11187;SDS011;5650;52.700;7.306;2023-05-28T04:02:47;23.30;;;10.07;;
11187;SDS011;5650;52.700;7.306;2023-05-28T04:05:17;25.48;;;10.80;;
11187;SDS011;5650;52.700;7.306;2023-05-28T04:07:46;21.33;;;10.63;;
11187;SDS011;5650;52.700;7.306;2023-05-28T04:10:14;24.70;;;10.75;;
11187;SDS011;5650;52.700;7.306;2023-05-28T04:12:42;22.15;;;10.85;;
11187;SDS011;5650;52.700;7.306;2023-05-28T04:15:09;22.10;;;10.95;;
11187;SDS011;5650;52.700;7.306;2023-05-28T04:17:37;19.90;;;9.85;;
11187;SDS011;5650;52.700;7.306;2023-05-28T04:20:04;21.77;;;9.75;;
11187;SDS011;5650;52.700;7.306;2023-05-28T04:22:38;25.38;;;11.20;;
11187;SDS011;5650;52.700;7.306;2023-05-28T04:25:07;17.23;;;10.02;;
11187;SDS011;5650;52.700;7.306;2023-05-28T04:27:34;19.60;;;9.68;;
11187;SDS011;5650;52.700;7.306;2023-05-28T04:30:03;23.67;;;10.13;;
11187;SDS011;5650;52.700;7.306;2023-05-28T04:32:33;23.65;;;10.15;;
11187;SDS011;5650;52.700;7.306;2023-05-28T04:35:06;20.40;;;9.52;;
11187;SDS011;5650;52.700;7.306;2023-05-28T04:37:37;22.85;;;10.13;;
11187;SDS011;5650;52.700;7.306;2023-05-28T04:40:07;22.23;;;10.02;;
11187;SDS011;5650;52.700;7.306;2023-05-28T04:42:40;21.58;;;10.38;;
11187;SDS011;5650;52.700;7.306;2023-05-28T04:45:08;14.75;;;9.00;;
11187;SDS011;5650;52.700;7.306;2023-05-28T04:47:36;20.33;;;10.52;;
11187;SDS011;5650;52.700;7.306;2023-05-28T04:50:04;21.45;;;9.55;;
11187;SDS011;5650;52.700;7.306;2023-05-28T04:52:32;22.02;;;9.90;;
11187;SDS011;5650;52.700;7.306;2023-05-28T04:55:00;21.70;;;9.50;;
11187;SDS011;5650;52.700;7.306;2023-05-28T04:57:33;24.55;;;9.40;;
11187;SDS011;5650;52.700;7.306;2023-05-28T05:00:00;20.52;;;10.18;;
11187;SDS011;5650;52.700;7.306;2023-05-28T05:02:29;18.05;;;9.55;;
11187;SDS011;5650;52.700;7.306;2023-05-28T05:04:56;21.52;;;10.13;;
11187;SDS011;5650;52.700;7.306;2023-05-28T05:07:29;16.33;;;9.00;;
11187;SDS011;5650;52.700;7.306;2023-05-28T05:10:05;22.27;;;9.35;;
11187;SDS011;5650;52.700;7.306;2023-05-28T05:12:54;17.80;;;9.15;;
11187;SDS011;5650;52.700;7.306;2023-05-28T05:15:24;20.08;;;8.98;;
11187;SDS011;5650;52.700;7.306;2023-05-28T05:17:55;16.48;;;8.50;;
11187;SDS011;5650;52.700;7.306;2023-05-28T05:20:22;19.90;;;8.10;;
11187;SDS011;5650;52.700;7.306;2023-05-28T05:22:49;20.55;;;8.60;;
11187;SDS011;5650;52.700;7.306;2023-05-28T05:25:20;15.15;;;8.32;;
11187;SDS011;5650;52.700;7.306;2023-05-28T05:27:55;16.48;;;7.53;;
11187;SDS011;5650;52.700;7.306;2023-05-28T05:30:23;18.23;;;7.78;;
11187;SDS011;5650;52.700;7.306;2023-05-28T05:32:50;15.43;;;7.57;;
11187;SDS011;5650;52.700;7.306;2023-05-28T05:35:21;21.38;;;8.75;;
11187;SDS011;5650;52.700;7.306;2023-05-28T05:37:48;17.58;;;8.60;;
11187;SDS011;5650;52.700;7.306;2023-05-28T05:40:16;16.33;;;8.32;;
11187;SDS011;5650;52.700;7.306;2023-05-28T05:42:43;18.70;;;8.85;;
11187;SDS011;5650;52.700;7.306;2023-05-28T05:45:15;14.80;;;8.88;;
11187;SDS011;5650;52.700;7.306;2023-05-28T05:47:42;14.70;;;8.23;;
11187;SDS011;5650;52.700;7.306;2023-05-28T05:50:10;15.18;;;7.85;;
11187;SDS011;5650;52.700;7.306;2023-05-28T05:52:48;15.73;;;7.60;;
11187;SDS011;5650;52.700;7.306;2023-05-28T05:55:15;18.15;;;8.10;;
11187;SDS011;5650;52.700;7.306;2023-05-28T05:57:48;18.13;;;8.00;;
11187;SDS011;5650;52.700;7.306;2023-05-28T06:00:23;15.88;;;8.05;;
11187;SDS011;5650;52.700;7.306;2023-05-28T06:02:56;17.40;;;7.40;;
11187;SDS011;5650;52.700;7.306;2023-05-28T06:05:26;12.25;;;6.40;;
11187;SDS011;5650;52.700;7.306;2023-05-28T06:07:53;12.55;;;6.15;;
11187;SDS011;5650;52.700;7.306;2023-05-28T06:10:28;12.95;;;6.53;;
11187;SDS011;5650;52.700;7.306;2023-05-28T06:13:06;15.00;;;6.90;;
11187;SDS011;5650;52.700;7.306;2023-05-28T06:18:06;15.30;;;6.53;;
11187;SDS011;5650;52.700;7.306;2023-05-28T06:20:34;13.43;;;6.38;;
11187;SDS011;5650;52.700;7.306;2023-05-28T06:23:13;15.27;;;6.45;;
11187;SDS011;5650;52.700;7.306;2023-05-28T06:25:46;12.82;;;5.80;;
11187;SDS011;5650;52.700;7.306;2023-05-28T06:28:13;15.13;;;6.38;;
11187;SDS011;5650;52.700;7.306;2023-05-28T06:30:41;13.77;;;6.43;;
11187;SDS011;5650;52.700;7.306;2023-05-28T06:33:13;12.80;;;5.97;;
11187;SDS011;5650;52.700;7.306;2023-05-28T06:35:43;12.40;;;6.38;;
11187;SDS011;5650;52.700;7.306;2023-05-28T06:38:11;13.25;;;6.45;;
11187;SDS011;5650;52.700;7.306;2023-05-28T06:40:38;15.45;;;6.65;;
11187;SDS011;5650;52.700;7.306;2023-05-28T06:43:07;14.07;;;6.50;;
11187;SDS011;5650;52.700;7.306;2023-05-28T06:45:42;14.55;;;6.50;;
11187;SDS011;5650;52.700;7.306;2023-05-28T06:48:09;13.65;;;6.28;;
11187;SDS011;5650;52.700;7.306;2023-05-28T06:50:57;15.23;;;6.20;;
11187;SDS011;5650;52.700;7.306;2023-05-28T06:53:24;11.93;;;5.85;;
11187;SDS011;5650;52.700;7.306;2023-05-28T06:55:59;17.95;;;5.90;;
11187;SDS011;5650;52.700;7.306;2023-05-28T06:58:26;16.85;;;6.72;;
11187;SDS011;5650;52.700;7.306;2023-05-28T07:00:53;13.25;;;5.93;;
11187;SDS011;5650;52.700;7.306;2023-05-28T07:03:21;11.88;;;5.93;;
11187;SDS011;5650;52.700;7.306;2023-05-28T07:05:48;14.93;;;5.68;;
11187;SDS011;5650;52.700;7.306;2023-05-28T07:08:17;12.68;;;6.18;;
11187;SDS011;5650;52.700;7.306;2023-05-28T07:10:44;13.10;;;5.90;;
11187;SDS011;5650;52.700;7.306;2023-05-28T07:13:11;12.25;;;5.68;;
11187;SDS011;5650;52.700;7.306;2023-05-28T07:15:39;12.90;;;5.88;;
11187;SDS011;5650;52.700;7.306;2023-05-28T07:18:09;16.10;;;6.32;;
11187;SDS011;5650;52.700;7.306;2023-05-28T07:20:36;12.82;;;5.80;;
11187;SDS011;5650;52.700;7.306;2023-05-28T07:23:06;13.88;;;5.88;;
11187;SDS011;5650;52.700;7.306;2023-05-28T07:25:37;16.15;;;6.55;;
11187;SDS011;5650;52.700;7.306;2023-05-28T07:28:06;17.10;;;6.38;;
11187;SDS011;5650;52.700;7.306;2023-05-28T07:30:42;13.10;;;6.40;;
11187;SDS011;5650;52.700;7.306;2023-05-28T07:33:10;13.15;;;5.57;;
11187;SDS011;5650;52.700;7.306;2023-05-28T07:35:37;13.07;;;5.90;;
11187;SDS011;5650;52.700;7.306;2023-05-28T07:38:04;14.45;;;5.68;;
11187;SDS011;5650;52.700;7.306;2023-05-28T07:40:32;11.63;;;5.90;;
11187;SDS011;5650;52.700;7.306;2023-05-28T07:43:01;14.00;;;6.05;;
11187;SDS011;5650;52.700;7.306;2023-05-28T07:45:28;13.07;;;5.20;;
11187;SDS011;5650;52.700;7.306;2023-05-28T07:47:58;11.13;;;5.05;;
11187;SDS011;5650;52.700;7.306;2023-05-28T07:50:26;15.07;;;5.85;;
11187;SDS011;5650;52.700;7.306;2023-05-28T07:52:56;13.02;;;5.40;;
11187;SDS011;5650;52.700;7.306;2023-05-28T07:55:23;14.13;;;6.13;;
11187;SDS011;5650;52.700;7.306;2023-05-28T07:57:50;14.10;;;5.70;;
11187;SDS011;5650;52.700;7.306;2023-05-28T08:00:22;13.15;;;5.20;;
11187;SDS011;5650;52.700;7.306;2023-05-28T08:02:52;9.23;;;5.05;;
11187;SDS011;5650;52.700;7.306;2023-05-28T08:05:20;12.52;;;5.40;;
11187;SDS011;5650;52.700;7.306;2023-05-28T08:07:50;16.08;;;5.45;;
11187;SDS011;5650;52.700;7.306;2023-05-28T08:10:20;16.90;;;5.32;;
11187;SDS011;5650;52.700;7.306;2023-05-28T08:12:53;14.88;;;5.78;;
11187;SDS011;5650;52.700;7.306;2023-05-28T08:15:22;15.07;;;5.88;;
11187;SDS011;5650;52.700;7.306;2023-05-28T08:17:55;12.10;;;5.18;;
11187;SDS011;5650;52.700;7.306;2023-05-28T08:20:27;13.45;;;4.80;;
11187;SDS011;5650;52.700;7.306;2023-05-28T08:23:00;14.88;;;5.35;;
11187;SDS011;5650;52.700;7.306;2023-05-28T08:25:28;13.38;;;5.10;;
11187;SDS011;5650;52.700;7.306;2023-05-28T08:27:59;11.45;;;5.00;;
11187;SDS011;5650;52.700;7.306;2023-05-28T08:30:27;12.50;;;5.07;;
11187;SDS011;5650;52.700;7.306;2023-05-28T08:32:58;14.85;;;4.90;;
11187;SDS011;5650;52.700;7.306;2023-05-28T08:35:26;13.65;;;5.50;;
11187;SDS011;5650;52.700;7.306;2023-05-28T08:37:53;12.60;;;5.05;;
11187;SDS011;5650;52.700;7.306;2023-05-28T08:40:20;9.80;;;4.97;;
11187;SDS011;5650;52.700;7.306;2023-05-28T08:42:48;9.55;;;4.03;;
11187;SDS011;5650;52.700;7.306;2023-05-28T08:45:21;14.95;;;5.13;;
11187;SDS011;5650;52.700;7.306;2023-05-28T08:47:52;13.82;;;4.63;;
11187;SDS011;5650;52.700;7.306;2023-05-28T08:50:33;12.65;;;4.32;;
11187;SDS011;5650;52.700;7.306;2023-05-28T08:53:13;12.10;;;4.72;;
11187;SDS011;5650;52.700;7.306;2023-05-28T08:55:43;14.18;;;5.32;;
11187;SDS011;5650;52.700;7.306;2023-05-28T08:58:17;12.57;;;4.57;;
11187;SDS011;5650;52.700;7.306;2023-05-28T09:00:44;11.90;;;4.70;;
11187;SDS011;5650;52.700;7.306;2023-05-28T09:03:16;12.45;;;5.20;;
11187;SDS011;5650;52.700;7.306;2023-05-28T09:05:43;13.05;;;4.57;;
11187;SDS011;5650;52.700;7.306;2023-05-28T09:08:12;14.35;;;4.82;;
11187;SDS011;5650;52.700;7.306;2023-05-28T09:10:42;12.48;;;5.13;;
11187;SDS011;5650;52.700;7.306;2023-05-28T09:13:09;12.68;;;5.18;;
11187;SDS011;5650;52.700;7.306;2023-05-28T09:15:40;12.77;;;5.05;;
11187;SDS011;5650;52.700;7.306;2023-05-28T09:18:07;10.75;;;4.25;;
11187;SDS011;5650;52.700;7.306;2023-05-28T09:20:43;13.23;;;4.80;;
11187;SDS011;5650;52.700;7.306;2023-05-28T09:23:22;14.20;;;5.00;;
11187;SDS011;5650;52.700;7.306;2023-05-28T09:25:57;13.80;;;4.95;;
11187;SDS011;5650;52.700;7.306;2023-05-28T09:28:28;15.25;;;5.28;;
11187;SDS011;5650;52.700;7.306;2023-05-28T09:31:01;14.80;;;5.28;;
11187;SDS011;5650;52.700;7.306;2023-05-28T09:33:32;11.45;;;4.63;;
11187;SDS011;5650;52.700;7.306;2023-05-28T09:36:08;14.32;;;4.90;;
11187;SDS011;5650;52.700;7.306;2023-05-28T09:38:40;12.95;;;4.80;;
11187;SDS011;5650;52.700;7.306;2023-05-28T09:41:25;15.38;;;5.25;;
11187;SDS011;5650;52.700;7.306;2023-05-28T09:43:59;16.08;;;5.30;;
11187;SDS011;5650;52.700;7.306;2023-05-28T09:46:29;15.75;;;5.25;;
11187;SDS011;5650;52.700;7.306;2023-05-28T09:48:57;13.70;;;5.03;;
11187;SDS011;5650;52.700;7.306;2023-05-28T09:51:27;11.65;;;4.65;;
11187;SDS011;5650;52.700;7.306;2023-05-28T09:54:03;14.30;;;4.68;;
11187;SDS011;5650;52.700;7.306;2023-05-28T09:56:37;11.27;;;4.20;;
11187;SDS011;5650;52.700;7.306;2023-05-28T09:59:10;13.88;;;4.43;;
11187;SDS011;5650;52.700;7.306;2023-05-28T10:01:47;14.13;;;4.72;;
11187;SDS011;5650;52.700;7.306;2023-05-28T10:04:38;12.68;;;4.55;;
11187;SDS011;5650;52.700;7.306;2023-05-28T10:07:10;10.55;;;4.97;;
11187;SDS011;5650;52.700;7.306;2023-05-28T10:09:41;18.27;;;5.13;;
11187;SDS011;5650;52.700;7.306;2023-05-28T10:12:10;10.70;;;4.28;;
11187;SDS011;5650;52.700;7.306;2023-05-28T10:14:43;16.88;;;4.90;;
11187;SDS011;5650;52.700;7.306;2023-05-28T10:17:18;14.10;;;5.25;;
11187;SDS011;5650;52.700;7.306;2023-05-28T10:19:48;13.02;;;4.57;;
11187;SDS011;5650;52.700;7.306;2023-05-28T10:22:17;10.65;;;4.43;;
11187;SDS011;5650;52.700;7.306;2023-05-28T10:24:45;15.57;;;5.43;;
11187;SDS011;5650;52.700;7.306;2023-05-28T10:27:16;10.73;;;4.70;;
11187;SDS011;5650;52.700;7.306;2023-05-28T10:29:44;13.48;;;5.03;;
11187;SDS011;5650;52.700;7.306;2023-05-28T10:32:18;13.38;;;5.68;;
11187;SDS011;5650;52.700;7.306;2023-05-28T10:34:48;15.55;;;4.57;;
11187;SDS011;5650;52.700;7.306;2023-05-28T10:37:31;12.15;;;4.82;;
11187;SDS011;5650;52.700;7.306;2023-05-28T10:40:01;14.15;;;4.80;;
11187;SDS011;5650;52.700;7.306;2023-05-28T10:42:31;11.60;;;4.43;;
11187;SDS011;5650;52.700;7.306;2023-05-28T10:45:09;16.52;;;5.50;;
11187;SDS011;5650;52.700;7.306;2023-05-28T10:47:41;13.02;;;4.75;;
11187;SDS011;5650;52.700;7.306;2023-05-28T10:50:17;16.65;;;5.20;;
11187;SDS011;5650;52.700;7.306;2023-05-28T10:55:48;16.02;;;4.90;;
11187;SDS011;5650;52.700;7.306;2023-05-28T10:58:26;14.25;;;4.80;;
11187;SDS011;5650;52.700;7.306;2023-05-28T11:03:46;11.27;;;4.38;;
11187;SDS011;5650;52.700;7.306;2023-05-28T11:06:19;13.20;;;5.07;;
11187;SDS011;5650;52.700;7.306;2023-05-28T11:08:55;10.05;;;5.10;;
11187;SDS011;5650;52.700;7.306;2023-05-28T11:11:23;17.60;;;5.20;;
11187;SDS011;5650;52.700;7.306;2023-05-28T11:13:55;14.35;;;5.35;;
11187;SDS011;5650;52.700;7.306;2023-05-28T11:16:22;14.23;;;5.63;;
11187;SDS011;5650;52.700;7.306;2023-05-28T11:19:05;9.95;;;4.85;;
11187;SDS011;5650;52.700;7.306;2023-05-28T11:21:36;10.95;;;4.85;;
11187;SDS011;5650;52.700;7.306;2023-05-28T11:24:17;13.25;;;5.45;;
11187;SDS011;5650;52.700;7.306;2023-05-28T11:26:45;11.90;;;4.95;;
11187;SDS011;5650;52.700;7.306;2023-05-28T11:29:15;11.98;;;4.78;;
11187;SDS011;5650;52.700;7.306;2023-05-28T11:31:42;10.38;;;4.88;;
11187;SDS011;5650;52.700;7.306;2023-05-28T11:34:10;12.40;;;5.15;;
11187;SDS011;5650;52.700;7.306;2023-05-28T11:36:41;17.40;;;5.55;;
11187;SDS011;5650;52.700;7.306;2023-05-28T11:39:09;11.07;;;5.63;;
11187;SDS011;5650;52.700;7.306;2023-05-28T11:41:38;12.25;;;5.07;;
11187;SDS011;5650;52.700;7.306;2023-05-28T11:44:19;11.02;;;4.93;;
11187;SDS011;5650;52.700;7.306;2023-05-28T11:46:49;13.25;;;4.90;;
11187;SDS011;5650;52.700;7.306;2023-05-28T11:49:20;13.05;;;5.03;;
11187;SDS011;5650;52.700;7.306;2023-05-28T11:51:59;11.63;;;5.03;;
11187;SDS011;5650;52.700;7.306;2023-05-28T11:54:31;17.00;;;5.35;;
11187;SDS011;5650;52.700;7.306;2023-05-28T11:57:03;12.30;;;4.93;;
11187;SDS011;5650;52.700;7.306;2023-05-28T11:59:32;12.20;;;4.70;;
11187;SDS011;5650;52.700;7.306;2023-05-28T12:02:12;12.93;;;4.82;;
11187;SDS011;5650;52.700;7.306;2023-05-28T12:04:52;11.77;;;4.80;;
11187;SDS011;5650;52.700;7.306;2023-05-28T12:07:35;10.85;;;5.03;;
11187;SDS011;5650;52.700;7.306;2023-05-28T12:10:15;12.68;;;5.07;;
11187;SDS011;5650;52.700;7.306;2023-05-28T12:12:48;11.13;;;5.07;;
11187;SDS011;5650;52.700;7.306;2023-05-28T12:15:16;10.55;;;4.47;;
11187;SDS011;5650;52.700;7.306;2023-05-28T12:17:53;11.02;;;4.50;;
11187;SDS011;5650;52.700;7.306;2023-05-28T12:20:28;11.98;;;5.13;;
11187;SDS011;5650;52.700;7.306;2023-05-28T12:23:00;14.02;;;5.07;;
11187;SDS011;5650;52.700;7.306;2023-05-28T12:25:28;14.98;;;4.70;;
11187;SDS011;5650;52.700;7.306;2023-05-28T12:28:12;10.50;;;4.40;;
11187;SDS011;5650;52.700;7.306;2023-05-28T12:30:42;9.38;;;4.45;;
11187;SDS011;5650;52.700;7.306;2023-05-28T12:33:10;9.45;;;4.43;;
11187;SDS011;5650;52.700;7.306;2023-05-28T12:35:38;11.88;;;4.63;;
11187;SDS011;5650;52.700;7.306;2023-05-28T12:38:05;13.50;;;4.82;;
11187;SDS011;5650;52.700;7.306;2023-05-28T12:40:39;10.48;;;4.65;;
11187;SDS011;5650;52.700;7.306;2023-05-28T12:43:07;13.10;;;4.93;;
11187;SDS011;5650;52.700;7.306;2023-05-28T12:45:45;9.45;;;4.70;;
11187;SDS011;5650;52.700;7.306;2023-05-28T12:48:12;11.18;;;5.13;;
11187;SDS011;5650;52.700;7.306;2023-05-28T12:50:42;9.88;;;4.45;;
11187;SDS011;5650;52.700;7.306;2023-05-28T12:53:12;11.27;;;4.78;;
11187;SDS011;5650;52.700;7.306;2023-05-28T12:55:43;11.45;;;4.75;;
11187;SDS011;5650;52.700;7.306;2023-05-28T12:58:17;12.23;;;4.57;;
11187;SDS011;5650;52.700;7.306;2023-05-28T13:00:45;9.43;;;4.90;;
11187;SDS011;5650;52.700;7.306;2023-05-28T13:03:12;7.70;;;4.40;;
11187;SDS011;5650;52.700;7.306;2023-05-28T13:05:49;6.80;;;4.20;;
11187;SDS011;5650;52.700;7.306;2023-05-28T13:08:19;10.80;;;4.60;;
11187;SDS011;5650;52.700;7.306;2023-05-28T13:10:49;8.75;;;4.80;;
11187;SDS011;5650;52.700;7.306;2023-05-28T13:13:21;7.28;;;4.38;;
11187;SDS011;5650;52.700;7.306;2023-05-28T13:15:51;11.05;;;4.20;;
11187;SDS011;5650;52.700;7.306;2023-05-28T13:18:24;11.70;;;4.53;;
11187;SDS011;5650;52.700;7.306;2023-05-28T13:20:51;10.55;;;4.53;;
11187;SDS011;5650;52.700;7.306;2023-05-28T13:23:22;8.88;;;4.47;;
11187;SDS011;5650;52.700;7.306;2023-05-28T13:25:49;8.77;;;4.50;;
11187;SDS011;5650;52.700;7.306;2023-05-28T13:28:28;10.23;;;4.50;;
11187;SDS011;5650;52.700;7.306;2023-05-28T13:30:58;11.95;;;4.90;;
11187;SDS011;5650;52.700;7.306;2023-05-28T13:33:31;7.68;;;4.00;;
11187;SDS011;5650;52.700;7.306;2023-05-28T13:35:58;6.72;;;4.00;;
11187;SDS011;5650;52.700;7.306;2023-05-28T13:38:31;9.70;;;4.63;;
11187;SDS011;5650;52.700;7.306;2023-05-28T13:40:59;6.68;;;3.92;;
11187;SDS011;5650;52.700;7.306;2023-05-28T13:43:32;6.35;;;3.67;;
11187;SDS011;5650;52.700;7.306;2023-05-28T13:46:02;4.85;;;3.63;;
11187;SDS011;5650;52.700;7.306;2023-05-28T13:48:32;6.68;;;3.97;;
11187;SDS011;5650;52.700;7.306;2023-05-28T13:51:03;12.70;;;3.92;;
11187;SDS011;5650;52.700;7.306;2023-05-28T13:53:31;4.68;;;3.50;;
11187;SDS011;5650;52.700;7.306;2023-05-28T13:56:03;9.63;;;4.15;;
11187;SDS011;5650;52.700;7.306;2023-05-28T13:58:32;8.05;;;3.75;;
11187;SDS011;5650;52.700;7.306;2023-05-28T14:00:59;4.65;;;3.55;;
11187;SDS011;5650;52.700;7.306;2023-05-28T14:03:27;6.55;;;3.75;;
11187;SDS011;5650;52.700;7.306;2023-05-28T14:06:00;8.50;;;3.97;;
11187;SDS011;5650;52.700;7.306;2023-05-28T14:08:33;7.38;;;3.72;;
11187;SDS011;5650;52.700;7.306;2023-05-28T14:11:00;6.47;;;3.53;;
11187;SDS011;5650;52.700;7.306;2023-05-28T14:13:30;7.53;;;3.58;;
11187;SDS011;5650;52.700;7.306;2023-05-28T14:15:59;5.18;;;3.22;;
11187;SDS011;5650;52.700;7.306;2023-05-28T14:18:27;5.43;;;3.38;;
11187;SDS011;5650;52.700;7.306;2023-05-28T14:21:00;6.00;;;3.45;;
11187;SDS011;5650;52.700;7.306;2023-05-28T14:23:30;4.97;;;3.63;;
11187;SDS011;5650;52.700;7.306;2023-05-28T14:26:04;5.78;;;3.20;;
11187;SDS011;5650;52.700;7.306;2023-05-28T14:28:33;4.22;;;3.22;;
11187;SDS011;5650;52.700;7.306;2023-05-28T14:31:04;4.50;;;2.85;;
11187;SDS011;5650;52.700;7.306;2023-05-28T14:33:31;7.20;;;3.40;;
11187;SDS011;5650;52.700;7.306;2023-05-28T14:36:05;3.95;;;3.15;;
11187;SDS011;5650;52.700;7.306;2023-05-28T14:38:34;7.13;;;3.63;;
11187;SDS011;5650;52.700;7.306;2023-05-28T14:41:08;5.20;;;3.53;;
11187;SDS011;5650;52.700;7.306;2023-05-28T14:43:37;4.55;;;2.90;;
11187;SDS011;5650;52.700;7.306;2023-05-28T14:46:07;5.90;;;3.38;;
11187;SDS011;5650;52.700;7.306;2023-05-28T14:48:35;5.22;;;3.15;;
11187;SDS011;5650;52.700;7.306;2023-05-28T14:51:02;7.88;;;3.58;;
11187;SDS011;5650;52.700;7.306;2023-05-28T14:53:32;8.23;;;3.53;;
11187;SDS011;5650;52.700;7.306;2023-05-28T14:55:59;5.68;;;3.20;;
11187;SDS011;5650;52.700;7.306;2023-05-28T14:58:29;5.70;;;3.38;;
11187;SDS011;5650;52.700;7.306;2023-05-28T15:01:06;4.40;;;3.28;;
11187;SDS011;5650;52.700;7.306;2023-05-28T15:03:37;4.93;;;2.92;;
11187;SDS011;5650;52.700;7.306;2023-05-28T15:06:07;7.35;;;2.90;;
11187;SDS011;5650;52.700;7.306;2023-05-28T15:08:39;5.13;;;3.15;;
11187;SDS011;5650;52.700;7.306;2023-05-28T15:11:09;7.63;;;3.30;;
11187;SDS011;5650;52.700;7.306;2023-05-28T15:13:39;5.15;;;3.03;;
11187;SDS011;5650;52.700;7.306;2023-05-28T15:16:11;6.28;;;3.42;;
11187;SDS011;5650;52.700;7.306;2023-05-28T15:18:38;5.45;;;3.35;;